Time;durP1;ratioP1;P1;durP2;ratioP2;P2;SDS_P1;SDS_P2;PMS_P1;PMS_P2;Temp;Humidity;BMP_temperature;BMP_pressure;BME280_temperature;BME280_humidity;BME280_pressure;Samples;Min_cycle;Max_cycle;Signal;HPM_P1;HPM_P2
2021/03/21 00:00:25;;;;;;;10.20;4.18;;;5.00;68.40;;;;;;5096032;28;20202;-83
2021/03/21 00:02:53;;;;;;;6.25;3.20;;;4.90;68.50;;;;;;5080220;28;20268;-85
2021/03/21 00:05:19;;;;;;;7.25;3.83;;;4.90;68.60;;;;;;5087918;28;20221;-84
2021/03/21 00:07:51;;;;;;;6.38;3.15;;;5.00;68.70;;;;;;5098415;28;20312;-84
2021/03/21 00:10:18;;;;;;;6.30;3.63;;;5.00;68.50;;;;;;5101833;28;20618;-85
2021/03/21 00:12:44;;;;;;;7.35;4.65;;;5.00;68.40;;;;;;5099359;28;20312;-85
2021/03/21 00:15:12;;;;;;;4.65;3.33;;;5.10;68.30;;;;;;5098845;28;20200;-85
2021/03/21 00:17:38;;;;;;;6.95;3.65;;;4.90;68.10;;;;;;5102416;28;20205;-84
2021/03/21 00:20:07;;;;;;;7.32;3.90;;;5.10;68.70;;;;;;5101522;28;20263;-83
2021/03/21 00:22:34;;;;;;;6.35;3.45;;;5.00;68.10;;;;;;5102663;28;20213;-85
2021/03/21 00:25:01;;;;;;;10.23;4.00;;;5.20;68.80;;;;;;5095657;28;20239;-84
2021/03/21 00:27:27;;;;;;;7.30;4.20;;;4.90;68.20;;;;;;5077277;28;20696;-83
2021/03/21 00:29:54;;;;;;;8.05;3.50;;;5.00;68.50;;;;;;5090205;28;20254;-82
2021/03/21 00:32:20;;;;;;;7.60;3.75;;;5.00;68.20;;;;;;5085019;28;20657;-84
2021/03/21 00:34:46;;;;;;;8.25;4.00;;;5.10;68.40;;;;;;5104592;28;20232;-84
2021/03/21 00:37:13;;;;;;;8.18;3.63;;;5.30;68.80;;;;;;5105353;28;20224;-84
2021/03/21 00:39:40;;;;;;;7.05;3.60;;;5.10;68.90;;;;;;5101742;28;20303;-83
2021/03/21 00:42:07;;;;;;;7.97;3.35;;;5.20;68.90;;;;;;5097158;28;20273;-84
2021/03/21 00:44:33;;;;;;;5.63;3.50;;;5.10;68.70;;;;;;5088513;28;20244;-83
2021/03/21 00:47:00;;;;;;;5.72;3.53;;;5.20;69.00;;;;;;5092179;28;20243;-85
2021/03/21 00:49:27;;;;;;;8.18;3.90;;;5.20;69.10;;;;;;5104604;28;20236;-83
2021/03/21 00:51:53;;;;;;;7.28;3.80;;;5.10;69.10;;;;;;5096173;28;20312;-84
2021/03/21 00:54:20;;;;;;;7.05;4.20;;;5.00;69.20;;;;;;5095362;28;20318;-84
2021/03/21 00:56:48;;;;;;;5.60;3.38;;;5.20;69.30;;;;;;5096324;28;20221;-83
2021/03/21 00:59:15;;;;;;;6.72;3.85;;;5.30;69.60;;;;;;5088513;28;20237;-85
2021/03/21 01:01:41;;;;;;;4.47;2.85;;;5.30;69.60;;;;;;5076722;28;20202;-83
2021/03/21 01:04:08;;;;;;;6.75;3.65;;;5.40;69.70;;;;;;5088827;28;20293;-84
2021/03/21 01:06:34;;;;;;;5.82;3.85;;;5.10;69.90;;;;;;5097219;28;20240;-84
2021/03/21 01:09:08;;;;;;;6.75;4.00;;;5.10;69.60;;;;;;5098413;28;20212;-84
2021/03/21 01:11:37;;;;;;;5.50;3.53;;;5.00;69.50;;;;;;5098408;28;20585;-83
2021/03/21 01:14:05;;;;;;;6.70;3.47;;;5.20;69.40;;;;;;5098137;28;20287;-84
2021/03/21 01:16:34;;;;;;;7.45;4.10;;;5.00;68.90;;;;;;5100619;28;20233;-83
2021/03/21 01:19:00;;;;;;;5.45;3.72;;;5.00;69.30;;;;;;5101436;28;20209;-84
2021/03/21 01:21:28;;;;;;;6.70;3.90;;;5.10;69.40;;;;;;5103300;28;20228;-82
2021/03/21 01:23:55;;;;;;;11.20;4.55;;;5.00;69.30;;;;;;5098520;28;20220;-83
2021/03/21 01:26:23;;;;;;;8.55;4.22;;;5.00;69.50;;;;;;5063416;22;20223;-78
2021/03/21 01:28:51;;;;;;;7.78;4.10;;;5.10;69.80;;;;;;5031257;28;20361;-78
2021/03/21 01:31:20;;;;;;;6.97;3.80;;;5.10;69.80;;;;;;5031123;28;20314;-78
2021/03/21 01:33:47;;;;;;;7.30;3.80;;;5.10;69.50;;;;;;5026039;28;20223;-78
2021/03/21 01:36:17;;;;;;;8.75;3.40;;;5.20;69.40;;;;;;5012668;28;20729;-78
2021/03/21 01:38:43;;;;;;;8.30;4.18;;;5.10;69.40;;;;;;5020019;28;20580;-79
2021/03/21 01:41:14;;;;;;;6.45;3.60;;;5.10;69.60;;;;;;5032473;28;20703;-79
2021/03/21 01:43:42;;;;;;;5.43;3.65;;;5.10;69.70;;;;;;5033462;28;20648;-79
2021/03/21 01:46:13;;;;;;;7.13;4.00;;;4.90;69.80;;;;;;5032692;28;20257;-79
2021/03/21 01:48:45;;;;;;;7.43;4.28;;;5.00;70.20;;;;;;5017088;28;20211;-79
2021/03/21 01:51:13;;;;;;;6.18;3.95;;;5.10;70.40;;;;;;5014522;28;20219;-79
2021/03/21 01:53:44;;;;;;;9.90;4.07;;;5.30;70.50;;;;;;5013356;28;20270;-78
2021/03/21 01:56:12;;;;;;;8.52;4.50;;;5.20;70.80;;;;;;5023180;28;20241;-78
2021/03/21 01:58:39;;;;;;;5.78;3.53;;;5.20;70.40;;;;;;5031071;28;20345;-78
2021/03/21 02:01:13;;;;;;;6.70;3.75;;;5.10;70.50;;;;;;5032683;28;20214;-79
2021/03/21 02:03:39;;;;;;;7.53;3.88;;;5.20;71.70;;;;;;5033070;28;20608;-79
2021/03/21 02:06:20;;;;;;;6.55;3.45;;;5.00;71.10;;;;;;5017501;28;20254;-79
2021/03/21 02:08:52;;;;;;;7.60;3.80;;;5.00;70.90;;;;;;5033316;28;20310;-79
2021/03/21 02:11:34;;;;;;;6.97;4.05;;;5.10;71.30;;;;;;5021281;28;20203;-79
2021/03/21 02:14:11;;;;;;;6.85;3.22;;;5.10;71.40;;;;;;5030894;28;20258;-79
2021/03/21 02:16:45;;;;;;;6.82;3.50;;;5.10;71.30;;;;;;5030918;28;20282;-78
2021/03/21 02:19:25;;;;;;;5.32;3.30;;;5.20;71.10;;;;;;5032749;28;20418;-78
2021/03/21 02:21:55;;;;;;;6.25;3.88;;;5.20;71.10;;;;;;5016338;28;20289;-78
2021/03/21 02:24:49;;;;;;;7.97;4.10;;;5.10;71.80;;;;;;5015933;28;20212;-78
2021/03/21 02:27:38;;;;;;;5.72;3.17;;;5.20;71.30;;;;;;5024425;28;20210;-78
2021/03/21 02:30:11;;;;;;;5.05;3.83;;;5.10;71.40;;;;;;5014834;28;20291;-77
2021/03/21 02:32:48;;;;;;;5.90;3.30;;;5.00;70.60;;;;;;5014263;28;20227;-78
2021/03/21 02:35:20;;;;;;;6.07;3.33;;;5.20;70.30;;;;;;5032994;28;20231;-78
2021/03/21 02:37:51;;;;;;;7.82;4.00;;;5.30;70.70;;;;;;5029933;28;20221;-78
2021/03/21 02:40:26;;;;;;;8.77;2.85;;;5.20;70.30;;;;;;5031796;28;20230;-78
2021/03/21 02:42:59;;;;;;;7.40;3.35;;;5.40;70.30;;;;;;5032466;28;20290;-78
2021/03/21 02:45:29;;;;;;;5.85;3.30;;;5.20;70.50;;;;;;5032670;28;20302;-78
2021/03/21 02:48:01;;;;;;;5.22;3.17;;;5.10;69.20;;;;;;5032570;28;20231;-78
2021/03/21 02:50:32;;;;;;;6.15;3.63;;;5.00;69.20;;;;;;5032151;28;20211;-78
2021/03/21 02:53:02;;;;;;;6.30;3.25;;;5.10;69.30;;;;;;5028777;28;20292;-78
2021/03/21 02:55:33;;;;;;;6.07;3.80;;;4.90;68.90;;;;;;5031383;28;20277;-78
2021/03/21 02:58:15;;;;;;;5.45;3.35;;;5.00;69.50;;;;;;5031424;28;20215;-78
2021/03/21 03:00:49;;;;;;;5.95;3.60;;;4.90;69.80;;;;;;5010492;28;20300;-77
2021/03/21 03:03:19;;;;;;;5.75;3.00;;;5.00;70.20;;;;;;5026724;28;20199;-77
2021/03/21 03:05:50;;;;;;;7.20;3.65;;;5.20;70.10;;;;;;5029055;28;20227;-77
2021/03/21 03:08:21;;;;;;;5.35;3.72;;;4.90;70.00;;;;;;5027284;28;20273;-77
2021/03/21 03:10:51;;;;;;;5.07;3.40;;;5.20;70.10;;;;;;5020451;28;20211;-78
2021/03/21 03:13:22;;;;;;;8.70;4.50;;;5.10;70.40;;;;;;5031583;28;20242;-78
2021/03/21 03:15:50;;;;;;;6.43;3.42;;;5.00;70.40;;;;;;5029866;28;20641;-78
2021/03/21 03:18:32;;;;;;;5.50;3.35;;;5.00;70.80;;;;;;5035438;28;20527;-78
2021/03/21 03:21:07;;;;;;;8.18;4.03;;;5.00;70.80;;;;;;5040526;28;20203;-77
2021/03/21 03:23:40;;;;;;;5.15;3.50;;;4.90;71.10;;;;;;5049860;28;20285;-77
2021/03/21 03:26:13;;;;;;;8.27;3.53;;;4.90;71.00;;;;;;5037439;28;20258;-77
2021/03/21 03:28:47;;;;;;;5.53;3.38;;;5.00;71.10;;;;;;5033514;28;20320;-77
2021/03/21 03:31:20;;;;;;;7.45;3.70;;;4.80;71.40;;;;;;5033062;28;20269;-77
2021/03/21 03:33:46;;;;;;;6.13;3.72;;;5.00;72.30;;;;;;5037504;28;20222;-77
2021/03/21 03:36:16;;;;;;;5.70;3.35;;;4.90;72.20;;;;;;5053074;28;20265;-77
2021/03/21 03:38:45;;;;;;;5.18;3.20;;;5.10;72.70;;;;;;5047638;28;20489;-77
2021/03/21 03:41:19;;;;;;;6.07;3.35;;;5.20;72.90;;;;;;5033248;28;20211;-77
2021/03/21 03:43:58;;;;;;;6.90;4.07;;;5.00;72.90;;;;;;5034728;28;20801;-78
2021/03/21 03:46:32;;;;;;;7.15;3.30;;;5.10;73.00;;;;;;5035195;28;20234;-78
2021/03/21 03:49:12;;;;;;;7.65;3.78;;;4.90;72.90;;;;;;5033444;28;20713;-78
2021/03/21 03:52:01;;;;;;;5.80;3.58;;;5.00;72.90;;;;;;5046151;28;20199;-78
2021/03/21 03:54:30;;;;;;;6.18;3.67;;;5.10;73.40;;;;;;5015034;28;20623;-78
2021/03/21 03:57:01;;;;;;;6.90;3.53;;;5.20;73.70;;;;;;5020575;28;20375;-78
2021/03/21 03:59:56;;;;;;;6.63;3.70;;;5.00;73.30;;;;;;5013305;28;20208;-78
2021/03/21 04:02:29;;;;;;;6.78;3.42;;;5.00;74.40;;;;;;5014935;28;20667;-78
2021/03/21 04:05:02;;;;;;;7.15;4.57;;;5.00;74.90;;;;;;5033661;28;20237;-78
2021/03/21 04:07:39;;;;;;;6.30;3.88;;;5.20;75.30;;;;;;5033287;28;20234;-78
2021/03/21 04:10:11;;;;;;;5.90;3.92;;;5.20;75.30;;;;;;5033326;28;20202;-79
2021/03/21 04:12:43;;;;;;;6.13;3.40;;;5.10;75.20;;;;;;5033421;28;20675;-77
2021/03/21 04:15:16;;;;;;;5.82;2.97;;;5.10;75.10;;;;;;5033332;28;20241;-79
2021/03/21 04:17:48;;;;;;;6.88;3.25;;;5.00;75.30;;;;;;5033992;28;20239;-79
2021/03/21 04:20:18;;;;;;;8.68;3.42;;;5.00;75.20;;;;;;5033713;28;20215;-79
2021/03/21 04:22:49;;;;;;;7.30;3.58;;;5.10;75.70;;;;;;5032843;28;20290;-78
2021/03/21 04:25:19;;;;;;;7.05;3.40;;;5.00;75.50;;;;;;5036545;28;20237;-78
2021/03/21 04:27:51;;;;;;;6.20;3.17;;;5.00;75.40;;;;;;5033599;28;20214;-78
2021/03/21 04:30:21;;;;;;;5.50;3.08;;;5.10;75.50;;;;;;5036461;28;20325;-78
2021/03/21 04:32:51;;;;;;;5.78;3.08;;;5.00;75.60;;;;;;5036116;28;20314;-78
2021/03/21 04:35:21;;;;;;;5.95;3.50;;;5.10;76.00;;;;;;5034800;28;20326;-78
2021/03/21 04:37:54;;;;;;;5.00;3.45;;;5.00;76.40;;;;;;5035382;28;20218;-78
2021/03/21 04:40:22;;;;;;;4.97;2.78;;;4.80;76.50;;;;;;5036899;28;20274;-78
2021/03/21 04:42:53;;;;;;;8.38;3.70;;;4.90;76.70;;;;;;5034736;28;20682;-78
2021/03/21 04:45:23;;;;;;;6.20;3.65;;;4.80;76.70;;;;;;5028087;28;20890;-78
2021/03/21 04:47:59;;;;;;;6.70;3.85;;;4.80;76.90;;;;;;5021911;28;20203;-78
2021/03/21 04:50:26;;;;;;;7.40;4.22;;;4.90;76.70;;;;;;5032236;28;20285;-78
2021/03/21 04:52:56;;;;;;;5.93;3.33;;;4.90;76.80;;;;;;5013936;28;20292;-78
2021/03/21 04:55:26;;;;;;;6.97;3.20;;;4.80;76.80;;;;;;5022333;28;20797;-78
2021/03/21 04:57:57;;;;;;;6.47;3.35;;;5.20;77.50;;;;;;5032888;28;20242;-78
2021/03/21 05:00:28;;;;;;;6.60;3.72;;;4.90;77.60;;;;;;5032809;28;20280;-78
2021/03/21 05:03:01;;;;;;;6.25;3.67;;;5.10;78.00;;;;;;5034326;28;20221;-79
2021/03/21 05:05:31;;;;;;;6.38;3.63;;;5.00;77.80;;;;;;5036933;28;20837;-79
2021/03/21 05:08:02;;;;;;;6.78;3.45;;;5.20;77.80;;;;;;5040692;28;20270;-79
2021/03/21 05:10:33;;;;;;;6.28;3.60;;;5.10;78.40;;;;;;5040980;28;20207;-77
2021/03/21 05:13:05;;;;;;;5.80;3.55;;;5.00;78.90;;;;;;5034086;28;20231;-79
2021/03/21 05:15:41;;;;;;;5.38;3.25;;;5.20;79.50;;;;;;5033115;28;20221;-79
2021/03/21 05:18:28;;;;;;;6.55;3.55;;;5.00;79.60;;;;;;5033860;28;20290;-77
2021/03/21 05:21:03;;;;;;;7.35;3.30;;;4.90;79.90;;;;;;5042198;28;20207;-78
2021/03/21 05:23:43;;;;;;;6.15;3.67;;;4.80;80.30;;;;;;5035345;28;20275;-79
2021/03/21 05:26:15;;;;;;;5.45;3.45;;;5.00;80.40;;;;;;5029341;28;20620;-78
2021/03/21 05:29:25;;;;;;;6.65;4.00;;;5.00;80.70;;;;;;5032051;28;20203;-78
2021/03/21 05:31:51;;;;;;;6.10;3.40;;;4.80;80.60;;;;;;5032804;28;20290;-79
2021/03/21 05:34:19;;;;;;;8.00;3.60;;;5.00;80.90;;;;;;5031471;28;20234;-80
2021/03/21 05:37:00;;;;;;;5.25;3.30;;;5.00;81.10;;;;;;5032272;28;20671;-78
2021/03/21 05:39:42;;;;;;;6.55;3.65;;;4.90;81.60;;;;;;5019328;28;20231;-79
2021/03/21 05:42:41;;;;;;;6.30;3.85;;;5.10;81.80;;;;;;5013877;28;20573;-78
2021/03/21 05:45:35;;;;;;;6.18;3.70;;;5.20;81.70;;;;;;5013507;28;20264;-80
2021/03/21 05:48:30;;;;;;;8.10;4.18;;;5.00;80.80;;;;;;5022814;28;20218;-78
2021/03/21 05:51:29;;;;;;;5.70;3.60;;;5.00;80.50;;;;;;5016487;28;20204;-80
2021/03/21 05:54:27;;;;;;;6.15;3.67;;;5.20;81.40;;;;;;5013643;28;20259;-77
2021/03/21 05:57:10;;;;;;;8.05;4.40;;;5.10;81.60;;;;;;5031477;28;20210;-78
2021/03/21 05:59:57;;;;;;;5.53;3.30;;;5.10;81.60;;;;;;5033339;28;20213;-79
2021/03/21 06:02:59;;;;;;;8.48;4.43;;;5.30;82.10;;;;;;5031759;28;20289;-78
2021/03/21 06:06:01;;;;;;;8.20;3.95;;;5.20;82.50;;;;;;5031826;28;20266;-78
2021/03/21 06:08:41;;;;;;;8.25;4.60;;;5.20;82.80;;;;;;5011498;28;20234;-78
2021/03/21 06:11:44;;;;;;;7.53;3.65;;;5.10;82.80;;;;;;5031283;28;20301;-78
2021/03/21 06:14:47;;;;;;;6.07;3.58;;;5.20;83.20;;;;;;5011430;28;20263;-77
2021/03/21 06:17:59;;;;;;;7.43;3.95;;;5.20;82.80;;;;;;5016345;28;20242;-77
2021/03/21 06:20:59;;;;;;;9.65;3.55;;;4.90;82.80;;;;;;5030139;28;20215;-78
2021/03/21 06:24:13;;;;;;;6.40;3.50;;;5.30;83.00;;;;;;5029886;28;20278;-78
2021/03/21 06:26:44;;;;;;;6.20;3.20;;;5.10;83.50;;;;;;5031836;28;20292;-77
2021/03/21 06:29:45;;;;;;;6.43;3.47;;;5.40;83.00;;;;;;5024525;28;20239;-78
2021/03/21 06:32:56;;;;;;;5.45;3.50;;;5.20;82.60;;;;;;5013082;28;20268;-77
2021/03/21 06:35:48;;;;;;;6.32;3.80;;;5.20;82.60;;;;;;4970112;28;20316;-78
2021/03/21 06:38:58;;;;;;;5.57;3.90;;;5.40;82.20;;;;;;5031925;28;20293;-78
2021/03/21 06:41:41;;;;;;;5.90;3.85;;;5.40;82.30;;;;;;5029183;28;20668;-78
2021/03/21 06:44:25;;;;;;;7.10;3.90;;;5.40;82.40;;;;;;5021638;28;20249;-77
2021/03/21 06:47:16;;;;;;;5.15;3.00;;;5.20;82.30;;;;;;5029592;28;20229;-78
2021/03/21 06:50:20;;;;;;;5.75;3.83;;;5.20;82.60;;;;;;5030515;28;20271;-78
2021/03/21 06:52:55;;;;;;;6.07;3.70;;;5.40;82.60;;;;;;4976927;28;20227;-79
2021/03/21 06:55:33;;;;;;;6.97;4.00;;;5.50;83.00;;;;;;5033187;28;20223;-78
2021/03/21 06:58:47;;;;;;;6.38;3.47;;;5.50;82.90;;;;;;5037535;28;20676;-78
2021/03/21 07:01:26;;;;;;;6.43;3.58;;;5.50;83.10;;;;;;5034104;28;20199;-78
2021/03/21 07:04:50;;;;;;;7.10;4.30;;;5.70;83.40;;;;;;5033761;28;20301;-78
2021/03/21 07:08:05;;;;;;;6.28;4.25;;;5.60;82.70;;;;;;5033299;28;20208;-78
2021/03/21 07:11:01;;;;;;;8.93;3.70;;;5.30;82.30;;;;;;4971793;28;20235;-78
2021/03/21 07:14:09;;;;;;;9.05;3.53;;;5.30;83.10;;;;;;5015036;28;20709;-78
2021/03/21 07:17:24;;;;;;;6.20;3.67;;;5.50;83.70;;;;;;5004541;28;20755;-78
2021/03/21 07:20:22;;;;;;;7.47;3.88;;;5.30;83.30;;;;;;5033766;28;20222;-78
2021/03/21 07:23:32;;;;;;;10.25;3.45;;;5.50;83.90;;;;;;5036244;28;20231;-78
2021/03/21 07:26:19;;;;;;;5.50;3.58;;;5.40;83.90;;;;;;5056530;22;20242;-84
2021/03/21 07:29:30;;;;;;;6.55;3.75;;;5.40;83.70;;;;;;5099146;28;20209;-84
2021/03/21 07:32:15;;;;;;;4.82;3.25;;;5.30;84.10;;;;;;5078312;28;20290;-82
2021/03/21 07:35:11;;;;;;;7.72;4.20;;;5.40;84.10;;;;;;5085112;28;20201;-83
2021/03/21 07:37:47;;;;;;;6.53;3.72;;;5.40;84.10;;;;;;5075778;28;20217;-85
2021/03/21 07:40:37;;;;;;;5.32;3.10;;;5.50;84.20;;;;;;5096592;28;20216;-78
2021/03/21 07:43:34;;;;;;;5.35;3.38;;;5.40;84.10;;;;;;5076154;28;20198;-85
2021/03/21 07:46:34;;;;;;;5.97;3.53;;;5.60;83.90;;;;;;5081902;28;20202;-84
2021/03/21 07:49:15;;;;;;;5.15;3.15;;;5.70;83.60;;;;;;5083141;28;20412;-81
2021/03/21 07:52:00;;;;;;;6.85;3.35;;;5.50;83.10;;;;;;5095165;28;20182;-83
2021/03/21 07:54:35;;;;;;;5.75;3.05;;;5.60;83.50;;;;;;5091874;28;20443;-82
2021/03/21 07:57:10;;;;;;;5.75;3.42;;;5.80;82.70;;;;;;5078307;28;20251;-82
2021/03/21 07:59:38;;;;;;;5.88;3.08;;;5.80;82.10;;;;;;5078957;28;20197;-80
2021/03/21 08:02:08;;;;;;;6.78;4.00;;;5.70;82.50;;;;;;5078359;28;20205;-81
2021/03/21 08:04:43;;;;;;;10.68;3.67;;;5.80;82.70;;;;;;5081123;28;20210;-85
2021/03/21 08:07:15;;;;;;;5.95;3.42;;;5.90;82.30;;;;;;5082606;28;20229;-84
2021/03/21 08:09:42;;;;;;;7.88;3.47;;;6.10;81.80;;;;;;5094036;28;20190;-79
2021/03/21 08:12:29;;;;;;;7.05;3.88;;;6.00;81.90;;;;;;5078427;28;20210;-78
2021/03/21 08:15:02;;;;;;;6.20;3.40;;;6.10;82.00;;;;;;5078213;28;20591;-79
2021/03/21 08:17:31;;;;;;;5.75;3.65;;;6.10;82.10;;;;;;5078353;28;20275;-79
2021/03/21 08:20:00;;;;;;;5.85;3.13;;;6.00;81.90;;;;;;5078124;28;20668;-79
2021/03/21 08:22:31;;;;;;;6.97;3.60;;;6.10;81.60;;;;;;5083598;28;20428;-77
2021/03/21 08:25:03;;;;;;;5.43;3.30;;;6.20;81.80;;;;;;5080743;28;20230;-80
2021/03/21 08:27:32;;;;;;;6.65;3.78;;;6.10;82.10;;;;;;5078251;28;20301;-79
2021/03/21 08:30:01;;;;;;;6.82;3.60;;;6.20;81.70;;;;;;5078763;28;20309;-78
2021/03/21 08:32:29;;;;;;;7.30;3.63;;;6.30;81.80;;;;;;5076916;28;20206;-78
2021/03/21 08:35:11;;;;;;;6.38;3.60;;;6.10;81.80;;;;;;5077398;28;20209;-81
2021/03/21 08:37:44;;;;;;;5.80;3.55;;;6.20;81.90;;;;;;5065485;28;20643;-78
2021/03/21 08:40:19;;;;;;;8.07;3.83;;;6.30;82.00;;;;;;5076534;28;20206;-77
2021/03/21 08:42:48;;;;;;;6.97;4.18;;;6.30;81.70;;;;;;5060137;28;20691;-79
2021/03/21 08:45:32;;;;;;;5.28;3.45;;;6.40;81.70;;;;;;5076998;28;20755;-84
2021/03/21 08:48:32;;;;;;;4.30;2.75;;;6.60;81.80;;;;;;5075574;28;20226;-79
2021/03/21 08:51:20;;;;;;;6.13;3.65;;;6.50;81.00;;;;;;5085164;28;20265;-78
2021/03/21 08:53:55;;;;;;;6.18;3.00;;;6.60;81.20;;;;;;5090684;28;20605;-83
2021/03/21 08:56:23;;;;;;;5.63;3.33;;;6.40;80.90;;;;;;5080925;28;20213;-87
2021/03/21 08:58:51;;;;;;;9.68;3.92;;;6.40;80.70;;;;;;5067017;28;20248;-83
2021/03/21 09:01:21;;;;;;;5.28;3.30;;;6.50;80.60;;;;;;5078030;28;20793;-83
2021/03/21 09:03:48;;;;;;;14.13;3.67;;;6.70;81.20;;;;;;5079687;28;20274;-83
2021/03/21 09:06:34;;;;;;;5.95;3.22;;;6.40;79.90;;;;;;5098233;28;20249;-83
2021/03/21 09:09:21;;;;;;;5.95;3.80;;;6.70;80.40;;;;;;5098081;28;20228;-82
2021/03/21 09:11:50;;;;;;;8.20;4.00;;;6.90;80.50;;;;;;5093153;28;20648;-83
2021/03/21 09:14:24;;;;;;;7.35;4.25;;;6.70;80.20;;;;;;5100470;28;20228;-83
2021/03/21 09:16:59;;;;;;;6.40;3.80;;;6.80;79.90;;;;;;5106202;28;20318;-82
2021/03/21 09:19:29;;;;;;;6.90;3.80;;;6.80;79.90;;;;;;5091746;28;20616;-82
2021/03/21 09:21:55;;;;;;;6.40;3.97;;;6.70;79.60;;;;;;5078789;28;20358;-80
2021/03/21 09:24:26;;;;;;;6.78;3.88;;;6.70;79.60;;;;;;5076753;28;20210;-77
2021/03/21 09:26:55;;;;;;;8.50;3.72;;;6.80;79.60;;;;;;5070199;28;20240;-76
2021/03/21 09:29:32;;;;;;;5.47;3.72;;;6.80;79.60;;;;;;5085116;28;20222;-82
2021/03/21 09:32:03;;;;;;;6.22;3.90;;;6.90;79.50;;;;;;5076299;28;20201;-77
2021/03/21 09:34:42;;;;;;;6.85;3.70;;;6.80;79.40;;;;;;5077107;28;20304;-83
2021/03/21 09:37:14;;;;;;;5.50;3.40;;;6.90;79.70;;;;;;5080933;28;20296;-82
2021/03/21 09:39:54;;;;;;;6.07;3.55;;;6.90;79.50;;;;;;5084537;28;20265;-84
2021/03/21 09:42:21;;;;;;;8.40;4.10;;;7.30;79.70;;;;;;5076011;28;20765;-81
2021/03/21 09:44:48;;;;;;;7.57;3.55;;;7.00;79.40;;;;;;5074494;28;20201;-81
2021/03/21 09:47:38;;;;;;;10.18;4.38;;;7.00;80.40;;;;;;5076079;28;20226;-82
2021/03/21 09:50:29;;;;;;;6.63;4.10;;;7.00;80.10;;;;;;5076179;28;20339;-83
2021/03/21 09:53:31;;;;;;;7.13;3.92;;;6.90;80.60;;;;;;5177046;27;20540;-83
2021/03/21 09:56:05;;;;;;;5.22;3.38;;;7.00;80.70;;;;;;5177284;27;20255;-84
2021/03/21 09:58:41;;;;;;;6.32;4.32;;;7.00;80.70;;;;;;5156445;27;20210;-82
2021/03/21 10:01:17;;;;;;;7.57;4.43;;;7.30;80.80;;;;;;5169025;27;20278;-82
2021/03/21 10:03:47;;;;;;;7.72;4.68;;;7.10;80.60;;;;;;5158980;27;20258;-80
2021/03/21 10:06:19;;;;;;;7.43;4.00;;;7.20;81.00;;;;;;5157753;27;20231;-81
2021/03/21 10:08:57;;;;;;;7.20;3.97;;;7.40;81.00;;;;;;5156965;27;20215;-82
2021/03/21 10:11:28;;;;;;;11.07;5.00;;;7.50;81.10;;;;;;5161287;27;20242;-83
2021/03/21 10:13:55;;;;;;;6.05;4.03;;;7.50;81.50;;;;;;5157856;27;20198;-82
2021/03/21 10:16:36;;;;;;;11.68;5.32;;;7.40;81.60;;;;;;5157858;27;20880;-85
2021/03/21 10:19:08;;;;;;;7.78;3.80;;;7.60;81.30;;;;;;5155548;27;20199;-82
2021/03/21 10:21:37;;;;;;;9.60;4.55;;;7.70;81.30;;;;;;5158170;27;20223;-84
2021/03/21 10:24:29;;;;;;;6.18;3.75;;;7.80;82.90;;;;;;5157691;27;20207;-84
2021/03/21 10:27:35;;;;;;;6.32;3.90;;;8.00;84.60;;;;;;5167446;27;20222;-83
2021/03/21 10:30:27;;;;;;;6.20;4.25;;;7.50;88.30;;;;;;5180514;27;20233;-82
2021/03/21 10:33:35;;;;;;;7.90;4.68;;;7.60;90.00;;;;;;5174525;27;20219;-82
2021/03/21 10:36:02;;;;;;;10.25;5.22;;;7.30;90.00;;;;;;5116744;28;20220;-82
2021/03/21 10:38:48;;;;;;;7.28;4.22;;;7.50;90.70;;;;;;5152184;27;20565;-84
2021/03/21 10:41:54;;;;;;;7.30;4.60;;;7.60;90.80;;;;;;5155499;27;20253;-81
2021/03/21 10:44:43;;;;;;;7.45;4.85;;;7.50;91.50;;;;;;5160661;27;20203;-82
2021/03/21 10:47:33;;;;;;;8.75;4.60;;;7.10;92.90;;;;;;5163878;27;20227;-82
2021/03/21 10:50:02;;;;;;;6.47;4.10;;;7.20;93.90;;;;;;5174294;27;20210;-86
2021/03/21 10:52:32;;;;;;;6.78;3.78;;;7.10;95.50;;;;;;5182712;27;20219;-82
2021/03/21 10:55:28;;;;;;;9.23;5.72;;;7.20;96.00;;;;;;5184211;27;20293;-81
2021/03/21 10:58:21;;;;;;;7.97;5.07;;;7.30;97.50;;;;;;5185603;27;20206;-81
2021/03/21 11:01:22;;;;;;;8.07;4.47;;;7.30;98.30;;;;;;5187393;27;20234;-82
2021/03/21 11:03:58;;;;;;;11.93;6.75;;;7.60;99.00;;;;;;5177188;27;20209;-82
2021/03/21 11:06:27;;;;;;;10.32;5.78;;;7.30;99.30;;;;;;5163104;27;20219;-81
2021/03/21 11:08:53;;;;;;;10.77;5.00;;;7.20;99.90;;;;;;5152079;27;20196;-80
2021/03/21 11:11:25;;;;;;;10.57;5.80;;;7.20;99.90;;;;;;5149981;27;20262;-80
2021/03/21 11:13:52;;;;;;;9.25;6.07;;;7.00;99.90;;;;;;5151631;27;20187;-81
2021/03/21 11:16:21;;;;;;;10.95;6.65;;;7.10;99.90;;;;;;5152501;27;20215;-81
2021/03/21 11:18:51;;;;;;;11.13;6.90;;;7.20;99.90;;;;;;5155429;27;20207;-82
2021/03/21 11:21:22;;;;;;;11.48;7.03;;;7.40;99.90;;;;;;5155542;27;20284;-82
2021/03/21 11:23:53;;;;;;;10.95;6.35;;;7.10;99.90;;;;;;5150673;27;20208;-81
2021/03/21 11:26:28;;;;;;;10.00;6.88;;;7.10;99.90;;;;;;5145980;27;20310;-80
2021/03/21 11:29:10;;;;;;;11.55;6.72;;;7.20;99.90;;;;;;5164362;27;20223;-83
2021/03/21 11:31:40;;;;;;;10.05;6.75;;;7.50;99.80;;;;;;5195584;27;20222;-82
2021/03/21 11:34:18;;;;;;;12.23;7.38;;;7.70;98.40;;;;;;5198502;27;20194;-82
2021/03/21 11:36:45;;;;;;;9.77;6.70;;;7.80;97.40;;;;;;5200529;27;20286;-83
2021/03/21 11:39:15;;;;;;;8.77;5.57;;;7.90;96.00;;;;;;5185626;27;20287;-82
2021/03/21 11:41:42;;;;;;;12.90;6.57;;;7.80;95.70;;;;;;5175632;27;20207;-82
2021/03/21 11:44:25;;;;;;;9.00;5.93;;;7.70;95.60;;;;;;5177721;27;20204;-81
2021/03/21 11:46:53;;;;;;;13.07;6.60;;;7.80;95.30;;;;;;5170967;27;20318;-83
2021/03/21 11:49:24;;;;;;;11.43;6.80;;;7.60;94.90;;;;;;5164492;27;20349;-84
2021/03/21 11:51:59;;;;;;;9.77;6.10;;;7.70;95.10;;;;;;5163357;27;20240;-83
2021/03/21 11:54:28;;;;;;;9.57;5.60;;;7.70;94.80;;;;;;5163025;27;20226;-83
2021/03/21 11:57:04;;;;;;;8.05;4.85;;;7.80;94.70;;;;;;5155878;27;20220;-83
2021/03/21 11:59:38;;;;;;;12.02;6.07;;;8.10;94.60;;;;;;5167770;27;20195;-84
2021/03/21 12:02:31;;;;;;;10.68;6.30;;;8.20;94.70;;;;;;5163480;27;20688;-83
2021/03/21 12:05:01;;;;;;;9.75;6.13;;;7.90;94.40;;;;;;5164250;27;20217;-83
2021/03/21 12:07:31;;;;;;;7.55;5.07;;;8.00;94.80;;;;;;5163933;27;20250;-83
2021/03/21 12:09:58;;;;;;;11.18;6.47;;;7.80;94.90;;;;;;5162509;27;20291;-83
2021/03/21 12:12:36;;;;;;;8.55;5.60;;;8.10;95.30;;;;;;5162363;27;20245;-82
2021/03/21 12:15:06;;;;;;;9.15;5.95;;;7.90;94.90;;;;;;5162592;27;20209;-81
2021/03/21 12:17:42;;;;;;;10.65;6.53;;;8.10;95.20;;;;;;5161243;27;20242;-81
2021/03/21 12:20:46;;;;;;;9.93;6.03;;;8.00;95.20;;;;;;5160021;27;20214;-81
2021/03/21 12:23:31;;;;;;;8.55;4.55;;;7.90;95.60;;;;;;5095670;28;20749;-81
2021/03/21 12:26:20;;;;;;;9.75;5.50;;;8.40;95.60;;;;;;5156220;27;20214;-81
2021/03/21 12:28:59;;;;;;;9.90;4.90;;;8.50;95.40;;;;;;5136471;27;20294;-82
2021/03/21 12:31:32;;;;;;;6.10;4.07;;;8.30;96.30;;;;;;5144826;27;20219;-82
2021/03/21 12:34:19;;;;;;;6.88;3.90;;;8.20;97.70;;;;;;5161671;27;20626;-82
2021/03/21 12:37:04;;;;;;;6.50;3.97;;;8.40;98.00;;;;;;5159292;27;20227;-81
2021/03/21 12:39:33;;;;;;;7.85;4.88;;;8.40;98.50;;;;;;5160818;27;20227;-83
2021/03/21 12:41:59;;;;;;;7.97;3.58;;;8.30;98.60;;;;;;5160692;27;20203;-82
2021/03/21 12:44:28;;;;;;;6.15;4.07;;;8.70;98.60;;;;;;5159690;27;20654;-81
2021/03/21 12:47:02;;;;;;;6.20;4.00;;;8.60;98.60;;;;;;5150551;27;20219;-81
2021/03/21 12:49:47;;;;;;;6.70;3.72;;;8.50;99.00;;;;;;5141170;27;20189;-82
2021/03/21 12:52:17;;;;;;;4.75;3.10;;;8.20;99.90;;;;;;5139387;27;20224;-82
2021/03/21 12:54:46;;;;;;;7.45;3.50;;;8.30;99.90;;;;;;5138638;27;20215;-82
2021/03/21 12:57:14;;;;;;;6.43;3.58;;;8.10;99.90;;;;;;5148049;27;20222;-82
2021/03/21 12:59:42;;;;;;;6.38;3.50;;;8.10;99.90;;;;;;5170170;27;20222;-82
2021/03/21 13:02:21;;;;;;;5.55;3.10;;;8.20;99.90;;;;;;5179647;27;20281;-81
2021/03/21 13:04:48;;;;;;;5.70;3.90;;;8.40;99.90;;;;;;5179682;27;20243;-83
2021/03/21 13:07:16;;;;;;;5.70;3.27;;;8.60;99.90;;;;;;5180169;27;20687;-83
2021/03/21 13:09:42;;;;;;;8.05;3.70;;;8.70;99.90;;;;;;5180699;27;20519;-81
2021/03/21 13:12:10;;;;;;;5.45;3.55;;;8.90;99.90;;;;;;5180060;27;20663;-81
2021/03/21 13:14:37;;;;;;;6.05;3.80;;;8.80;99.90;;;;;;5181606;27;20289;-81
2021/03/21 13:17:04;;;;;;;7.00;3.65;;;8.90;99.90;;;;;;5180078;27;20222;-81
2021/03/21 13:19:30;;;;;;;6.97;3.92;;;8.70;99.90;;;;;;5179912;27;20203;-81
2021/03/21 13:21:57;;;;;;;6.32;4.13;;;8.70;99.90;;;;;;5180442;27;20838;-81
2021/03/21 13:24:25;;;;;;;5.68;3.50;;;9.00;99.90;;;;;;5180009;27;20234;-81
2021/03/21 13:26:51;;;;;;;6.03;4.03;;;8.90;99.90;;;;;;5171067;22;20266;-78
2021/03/21 13:29:18;;;;;;;6.10;4.32;;;8.80;99.90;;;;;;5070174;28;20711;-77
2021/03/21 13:31:45;;;;;;;9.10;4.53;;;8.50;99.90;;;;;;5070840;28;20317;-77
2021/03/21 13:34:12;;;;;;;6.20;4.50;;;8.50;99.90;;;;;;5070310;28;20237;-78
2021/03/21 13:36:39;;;;;;;10.18;4.93;;;8.40;99.90;;;;;;5069278;28;20205;-78
2021/03/21 13:39:05;;;;;;;7.93;4.25;;;8.40;99.90;;;;;;5069604;28;20567;-78
2021/03/21 13:41:33;;;;;;;6.38;3.78;;;8.50;99.90;;;;;;5071462;28;20236;-78
2021/03/21 13:44:00;;;;;;;6.10;4.10;;;8.80;99.90;;;;;;5071213;28;20217;-77